Time;durP1;ratioP1;P1;durP2;ratioP2;P2;SDS_P1;SDS_P2;PMS_P1;PMS_P2;Temp;Humidity;BMP_temperature;BMP_pressure;BME280_temperature;BME280_humidity;BME280_pressure;Samples;Min_cycle;Max_cycle;Signal;HPM_P1;HPM_P2
2021/10/01 00:00:46;;;;;;;5.35;2.00;;;12.40;92.50;;;;;;5012747;28;20034;-70
2021/10/01 00:03:12;;;;;;;4.57;2.60;;;12.40;92.50;;;;;;5013873;28;20072;-70
2021/10/01 00:05:39;;;;;;;5.18;2.15;;;12.40;92.50;;;;;;5014277;28;20054;-71
2021/10/01 00:08:05;;;;;;;4.18;2.15;;;12.40;92.50;;;;;;5014219;28;20192;-71
2021/10/01 00:10:31;;;;;;;4.30;1.80;;;12.40;92.50;;;;;;5007708;28;20022;-71
2021/10/01 00:12:56;;;;;;;5.35;1.92;;;12.40;92.50;;;;;;5005174;28;20030;-70
2021/10/01 00:15:22;;;;;;;5.32;1.90;;;12.40;92.50;;;;;;5013579;28;20026;-70
2021/10/01 00:17:47;;;;;;;4.07;1.95;;;12.40;92.50;;;;;;5014401;28;20037;-70
2021/10/01 00:20:13;;;;;;;9.95;2.15;;;12.40;92.50;;;;;;4996497;28;20386;-70
2021/10/01 00:22:39;;;;;;;6.18;2.15;;;12.40;92.40;;;;;;5003100;28;20123;-71
2021/10/01 00:25:05;;;;;;;2.90;1.90;;;12.40;92.40;;;;;;5006582;28;20462;-70
2021/10/01 00:27:30;;;;;;;5.97;1.83;;;12.40;92.40;;;;;;4995302;28;20460;-70
2021/10/01 00:29:56;;;;;;;3.97;1.95;;;12.40;92.30;;;;;;4999960;28;20045;-71
2021/10/01 00:32:21;;;;;;;2.47;1.70;;;12.40;92.50;;;;;;5014803;28;20028;-71
2021/10/01 00:34:49;;;;;;;3.22;1.90;;;12.40;92.40;;;;;;5012153;28;20521;-70
2021/10/01 00:37:16;;;;;;;4.72;2.05;;;12.50;92.40;;;;;;5014617;28;20030;-70
2021/10/01 00:39:41;;;;;;;5.18;1.80;;;12.50;92.40;;;;;;5011584;28;20022;-69
2021/10/01 00:42:07;;;;;;;3.17;1.85;;;12.50;92.40;;;;;;5014244;28;20088;-70
2021/10/01 00:44:32;;;;;;;4.45;2.08;;;12.40;92.40;;;;;;5011264;28;20029;-70
2021/10/01 00:46:58;;;;;;;3.70;2.15;;;12.40;92.40;;;;;;5014032;28;20028;-70
2021/10/01 00:49:23;;;;;;;5.32;2.00;;;12.40;92.40;;;;;;5003831;28;20121;-70
2021/10/01 00:51:51;;;;;;;5.53;2.00;;;12.40;92.50;;;;;;5013633;28;20022;-71
2021/10/01 00:54:16;;;;;;;4.13;1.98;;;12.40;92.50;;;;;;5012655;28;20490;-70
2021/10/01 00:56:42;;;;;;;5.50;2.20;;;12.40;92.50;;;;;;5012630;28;20149;-70
2021/10/01 00:59:08;;;;;;;3.25;1.83;;;12.40;92.50;;;;;;5012348;28;20474;-69
2021/10/01 01:01:33;;;;;;;4.75;2.25;;;12.40;92.60;;;;;;5012866;28;20120;-69
2021/10/01 01:04:02;;;;;;;3.83;1.80;;;12.30;92.40;;;;;;5012184;28;20041;-70
2021/10/01 01:06:55;;;;;;;5.93;2.10;;;12.30;92.40;;;;;;5011865;28;20030;-70
2021/10/01 01:09:46;;;;;;;3.35;2.05;;;12.30;92.40;;;;;;5002737;28;20041;-70
2021/10/01 01:12:34;;;;;;;3.50;1.95;;;12.30;92.50;;;;;;4994299;28;20034;-70
2021/10/01 01:15:09;;;;;;;2.70;1.73;;;12.30;92.60;;;;;;5002262;28;20036;-69
2021/10/01 01:17:43;;;;;;;4.00;2.00;;;12.20;92.50;;;;;;5013912;28;20026;-70
2021/10/01 01:20:28;;;;;;;4.05;1.77;;;12.20;92.70;;;;;;5011002;28;20025;-70
2021/10/01 01:23:05;;;;;;;;;;;12.20;92.70;;;;;;5014006;28;20093;-70
2021/10/01 01:25:49;;;;;;;3.17;1.90;;;12.20;92.60;;;;;;5011651;28;19909;-70
2021/10/01 01:28:24;;;;;;;3.88;1.90;;;12.10;92.80;;;;;;5011305;28;20327;-70
2021/10/01 01:30:50;;;;;;;;;;;12.10;92.80;;;;;;4994421;28;20052;-70
2021/10/01 01:33:21;;;;;;;3.90;1.90;;;12.10;92.70;;;;;;5004014;28;20259;-69
2021/10/01 01:35:49;;;;;;;5.50;1.98;;;12.00;92.70;;;;;;4993780;28;20031;-70
2021/10/01 01:38:24;;;;;;;5.40;2.20;;;12.10;92.80;;;;;;4995388;28;20034;-70
2021/10/01 01:40:52;;;;;;;3.85;2.00;;;12.00;92.80;;;;;;4993620;28;20022;-69
2021/10/01 01:43:19;;;;;;;4.57;1.88;;;12.00;92.90;;;;;;5005318;28;20367;-69
2021/10/01 01:45:46;;;;;;;4.78;2.20;;;12.00;93.00;;;;;;5012952;28;20026;-69
2021/10/01 01:48:13;;;;;;;6.07;2.30;;;12.00;93.00;;;;;;5011445;28;20045;-70
2021/10/01 01:50:39;;;;;;;3.58;1.98;;;12.00;93.10;;;;;;5012954;28;20347;-69
2021/10/01 01:53:08;;;;;;;5.13;2.20;;;12.00;93.20;;;;;;5011972;28;20025;-69
2021/10/01 01:55:35;;;;;;;5.63;2.20;;;11.90;93.10;;;;;;4997428;28;20145;-70
2021/10/01 01:58:01;;;;;;;4.50;2.60;;;11.90;93.10;;;;;;5002192;28;20112;-70
2021/10/01 02:00:28;;;;;;;4.88;2.38;;;11.90;93.10;;;;;;5013207;28;20100;-70
2021/10/01 02:02:54;;;;;;;6.10;2.05;;;11.90;93.30;;;;;;5004138;28;20117;-70
2021/10/01 02:05:21;;;;;;;4.00;2.30;;;11.90;93.30;;;;;;4992896;28;20033;-69
2021/10/01 02:07:49;;;;;;;6.63;2.47;;;11.90;93.40;;;;;;5001559;28;20482;-70
2021/10/01 02:10:17;;;;;;;4.78;2.40;;;11.90;93.40;;;;;;5012926;28;20382;-70
2021/10/01 02:12:46;;;;;;;5.18;2.40;;;11.80;93.60;;;;;;5006871;28;20062;-70
2021/10/01 02:15:13;;;;;;;6.38;2.35;;;11.90;93.50;;;;;;5012846;28;20116;-69
2021/10/01 02:17:43;;;;;;;6.93;2.53;;;11.80;93.50;;;;;;5008154;28;20036;-69
2021/10/01 02:20:10;;;;;;;4.75;2.30;;;11.80;93.60;;;;;;5012440;28;20076;-69
2021/10/01 02:22:36;;;;;;;5.25;2.20;;;11.80;93.50;;;;;;5009971;28;20034;-70
2021/10/01 02:25:03;;;;;;;5.55;2.58;;;11.80;93.60;;;;;;5012176;28;20030;-70
2021/10/01 02:27:36;;;;;;;4.65;2.45;;;11.80;93.60;;;;;;5010112;28;20088;-70
2021/10/01 02:30:14;;;;;;;4.50;2.10;;;11.80;93.60;;;;;;5011351;28;20625;-69
2021/10/01 02:32:46;;;;;;;4.60;2.10;;;11.80;93.70;;;;;;5004096;28;20038;-69
2021/10/01 02:35:11;;;;;;;5.72;2.67;;;11.70;93.60;;;;;;5012252;28;20056;-69
2021/10/01 02:37:38;;;;;;;4.25;2.80;;;11.70;93.60;;;;;;5009730;28;20025;-70
2021/10/01 02:40:07;;;;;;;3.42;2.45;;;11.70;93.60;;;;;;5012350;28;20357;-70
2021/10/01 02:42:33;;;;;;;4.63;2.30;;;11.70;93.60;;;;;;5009673;28;20045;-69
2021/10/01 02:44:59;;;;;;;4.75;2.88;;;11.60;93.70;;;;;;5012000;28;20021;-69
2021/10/01 02:47:29;;;;;;;4.43;2.58;;;11.60;93.80;;;;;;5008846;28;20398;-69
2021/10/01 02:49:56;;;;;;;4.60;2.35;;;11.60;93.80;;;;;;5000630;28;20048;-69
2021/10/01 02:52:37;;;;;;;4.60;2.47;;;11.60;93.70;;;;;;5010707;28;20092;-70
2021/10/01 02:55:10;;;;;;;3.70;2.28;;;11.60;93.90;;;;;;5010573;28;20073;-70
2021/10/01 02:57:43;;;;;;;4.40;2.72;;;11.60;93.80;;;;;;5000372;28;20087;-69
2021/10/01 03:00:09;;;;;;;6.13;2.53;;;11.60;93.80;;;;;;5009694;28;20026;-69
2021/10/01 03:02:38;;;;;;;3.35;2.25;;;11.60;93.80;;;;;;5009561;28;20034;-68
2021/10/01 03:05:04;;;;;;;4.95;2.70;;;11.60;93.90;;;;;;5011431;28;20044;-68
2021/10/01 03:07:33;;;;;;;4.07;2.40;;;11.60;93.90;;;;;;5009383;28;20026;-69
2021/10/01 03:10:04;;;;;;;6.45;2.53;;;11.70;94.00;;;;;;5011718;28;20083;-68
2021/10/01 03:12:31;;;;;;;5.07;2.40;;;11.60;93.80;;;;;;5004208;28;20015;-69
2021/10/01 03:14:57;;;;;;;5.57;3.17;;;11.60;93.90;;;;;;4991865;28;20056;-69
2021/10/01 03:17:23;;;;;;;4.70;2.42;;;11.60;93.80;;;;;;5002974;28;20101;-69
2021/10/01 03:19:50;;;;;;;3.95;2.60;;;11.60;93.80;;;;;;5011636;28;20038;-69
2021/10/01 03:22:17;;;;;;;4.50;2.28;;;11.50;93.90;;;;;;5009567;28;20052;-69
2021/10/01 03:24:44;;;;;;;5.88;2.65;;;11.60;93.80;;;;;;5011605;28;20030;-69
2021/10/01 03:27:10;;;;;;;4.07;2.55;;;11.60;93.80;;;;;;5004340;28;20475;-69
2021/10/01 03:29:36;;;;;;;4.57;2.58;;;11.60;93.80;;;;;;4992236;28;20034;-69
2021/10/01 03:32:03;;;;;;;3.50;2.40;;;11.60;93.90;;;;;;5001549;28;20501;-69
2021/10/01 03:34:29;;;;;;;4.60;2.47;;;11.60;93.90;;;;;;4996147;28;20112;-70
2021/10/01 03:36:55;;;;;;;3.60;2.22;;;11.70;94.00;;;;;;5005630;28;20097;-69
2021/10/01 03:39:22;;;;;;;5.00;2.78;;;11.60;93.90;;;;;;5015783;28;20522;-71
2021/10/01 03:41:49;;;;;;;4.72;2.90;;;11.60;93.90;;;;;;5011606;28;20634;-70
2021/10/01 03:44:14;;;;;;;4.53;2.58;;;11.50;93.90;;;;;;4995835;28;20105;-70
2021/10/01 03:46:40;;;;;;;4.38;2.33;;;11.50;93.90;;;;;;5001365;28;20446;-70
2021/10/01 03:49:05;;;;;;;4.93;2.83;;;11.50;94.00;;;;;;5015620;28;20022;-70
2021/10/01 03:51:31;;;;;;;5.25;2.65;;;11.50;94.30;;;;;;5013272;28;20113;-69
2021/10/01 03:53:57;;;;;;;3.65;2.28;;;11.50;94.40;;;;;;5014739;28;20046;-69
2021/10/01 03:56:23;;;;;;;4.60;2.90;;;11.50;94.30;;;;;;5014544;28;20018;-69
2021/10/01 03:58:49;;;;;;;3.65;2.55;;;11.40;94.20;;;;;;4994699;28;20037;-69
2021/10/01 04:01:15;;;;;;;4.32;2.53;;;11.40;94.20;;;;;;4997954;28;20556;-70
2021/10/01 04:03:41;;;;;;;4.60;2.38;;;11.50;94.20;;;;;;5004765;28;20053;-69
2021/10/01 04:06:06;;;;;;;4.72;2.50;;;11.40;94.20;;;;;;5013156;28;20026;-69
2021/10/01 04:08:33;;;;;;;4.00;2.83;;;11.40;94.50;;;;;;5014026;28;20041;-69
2021/10/01 04:10:58;;;;;;;3.38;2.35;;;11.40;94.30;;;;;;5014463;28;20028;-69
2021/10/01 04:13:24;;;;;;;3.92;2.55;;;11.40;94.30;;;;;;4997732;28;20030;-69
2021/10/01 04:15:50;;;;;;;5.57;2.60;;;11.30;94.30;;;;;;4997644;28;20033;-69
2021/10/01 04:18:15;;;;;;;3.88;2.40;;;11.30;94.30;;;;;;5007811;28;20030;-69
2021/10/01 04:20:43;;;;;;;6.38;2.83;;;11.30;94.30;;;;;;5014204;28;20038;-69
2021/10/01 04:23:09;;;;;;;4.85;2.85;;;11.30;94.30;;;;;;5013603;28;20038;-68
2021/10/01 04:25:35;;;;;;;3.33;2.42;;;11.30;94.30;;;;;;5013878;28;20562;-69
2021/10/01 04:28:00;;;;;;;5.35;2.60;;;11.30;94.30;;;;;;5012481;28;20026;-69
2021/10/01 04:30:26;;;;;;;3.70;2.40;;;11.30;94.40;;;;;;5013918;28;20168;-68
2021/10/01 04:33:02;;;;;;;3.78;2.60;;;11.20;94.30;;;;;;5013547;28;20022;-68
2021/10/01 04:35:28;;;;;;;6.55;2.50;;;11.30;94.30;;;;;;5012553;28;20042;-68
2021/10/01 04:37:54;;;;;;;4.25;2.38;;;11.20;94.30;;;;;;5012818;28;20097;-68
2021/10/01 04:40:19;;;;;;;9.52;2.55;;;11.20;94.30;;;;;;5013814;28;20389;-68
2021/10/01 04:42:45;;;;;;;4.93;2.60;;;11.20;94.40;;;;;;5011418;28;20038;-68
2021/10/01 04:45:11;;;;;;;4.85;2.72;;;11.20;94.50;;;;;;5012412;28;20261;-68
2021/10/01 04:47:37;;;;;;;4.13;2.63;;;11.20;94.50;;;;;;5012426;28;20064;-68
2021/10/01 04:50:05;;;;;;;4.85;2.53;;;11.20;94.40;;;;;;5013007;28;20425;-68
2021/10/01 04:52:31;;;;;;;4.00;2.67;;;11.20;94.40;;;;;;5004468;28;20180;-69
2021/10/01 04:54:56;;;;;;;6.03;2.72;;;11.20;94.40;;;;;;5011096;28;20136;-69
2021/10/01 04:57:21;;;;;;;4.65;2.90;;;11.20;94.40;;;;;;5024282;28;20540;-69
2021/10/01 04:59:47;;;;;;;6.00;3.00;;;11.20;94.50;;;;;;5013266;28;20026;-69
2021/10/01 05:02:13;;;;;;;4.88;2.60;;;11.20;94.50;;;;;;5012345;28;20034;-69
2021/10/01 05:04:38;;;;;;;4.65;2.88;;;11.20;94.50;;;;;;5013393;28;20034;-69
2021/10/01 05:07:03;;;;;;;4.80;2.67;;;11.20;94.60;;;;;;4999662;28;20024;-69
2021/10/01 05:09:29;;;;;;;6.07;3.00;;;11.20;94.60;;;;;;5013434;28;20126;-68
2021/10/01 05:11:54;;;;;;;5.72;2.70;;;11.20;94.70;;;;;;5010022;28;20447;-68
2021/10/01 05:14:20;;;;;;;4.93;2.90;;;11.20;94.70;;;;;;4999177;28;20014;-69
2021/10/01 05:16:45;;;;;;;5.60;2.95;;;11.20;94.70;;;;;;5008864;28;20398;-68
2021/10/01 05:19:11;;;;;;;4.93;2.60;;;11.20;94.70;;;;;;5010854;28;20022;-68
2021/10/01 05:21:36;;;;;;;6.07;2.97;;;11.20;94.70;;;;;;5011759;28;20034;-68
2021/10/01 05:24:02;;;;;;;4.00;2.72;;;11.20;94.70;;;;;;5012911;28;20082;-68
2021/10/01 05:26:28;;;;;;;5.05;3.00;;;11.20;94.70;;;;;;5012571;28;20057;-69
2021/10/01 05:28:55;;;;;;;5.88;2.78;;;11.20;94.70;;;;;;5011176;28;20030;-69
2021/10/01 05:31:20;;;;;;;4.88;2.80;;;11.20;94.70;;;;;;5012019;28;20109;-68
2021/10/01 05:33:46;;;;;;;4.95;3.03;;;11.20;94.80;;;;;;5011558;28;20141;-69
2021/10/01 05:36:11;;;;;;;3.90;2.67;;;11.20;94.90;;;;;;5011491;28;20057;-69
2021/10/01 05:38:37;;;;;;;5.97;3.35;;;11.20;95.00;;;;;;5010481;28;20328;-70
2021/10/01 05:41:03;;;;;;;5.45;3.00;;;11.20;94.80;;;;;;5010475;28;20025;-70
2021/10/01 05:43:28;;;;;;;6.13;3.10;;;11.20;94.80;;;;;;5010426;28;20391;-69
2021/10/01 05:45:56;;;;;;;5.07;2.67;;;11.30;94.80;;;;;;5011400;28;20030;-69
2021/10/01 05:48:24;;;;;;;6.10;3.30;;;11.30;94.80;;;;;;5012313;28;20030;-69
2021/10/01 05:50:54;;;;;;;7.13;2.80;;;11.30;94.80;;;;;;5012041;28;20048;-69
2021/10/01 05:53:45;;;;;;;5.10;2.90;;;11.30;94.70;;;;;;5011331;28;20088;-69
2021/10/01 05:56:11;;;;;;;7.43;2.97;;;11.30;94.80;;;;;;5006114;28;20034;-67
2021/10/01 05:58:39;;;;;;;5.22;2.83;;;11.30;94.80;;;;;;4999627;28;20110;-68
2021/10/01 06:01:05;;;;;;;4.28;2.67;;;11.40;94.80;;;;;;5003149;28;20091;-72
2021/10/01 06:03:31;;;;;;;9.45;3.40;;;11.60;95.60;;;;;;5007610;28;20096;-72
2021/10/01 06:05:56;;;;;;;6.47;2.70;;;11.70;95.00;;;;;;5002741;28;20550;-72
2021/10/01 06:08:22;;;;;;;5.60;2.97;;;11.70;94.80;;;;;;5002787;28;20030;-72
2021/10/01 06:10:48;;;;;;;5.10;2.67;;;11.70;94.80;;;;;;5006333;28;20518;-72
2021/10/01 06:13:13;;;;;;;5.13;2.95;;;11.80;94.80;;;;;;5005950;28;20034;-72
2021/10/01 06:15:39;;;;;;;7.18;2.88;;;11.80;94.80;;;;;;5007190;28;20160;-72
2021/10/01 06:18:04;;;;;;;7.10;3.03;;;11.90;94.60;;;;;;5006914;28;20029;-73
2021/10/01 06:20:30;;;;;;;4.57;2.80;;;12.00;94.60;;;;;;5002070;28;20430;-71
2021/10/01 06:22:56;;;;;;;5.85;2.80;;;12.20;95.70;;;;;;5000253;28;20046;-72
2021/10/01 06:25:22;;;;;;;6.40;3.20;;;12.40;95.00;;;;;;4999589;28;20045;-71
2021/10/01 06:27:49;;;;;;;7.00;4.20;;;12.40;94.50;;;;;;4998027;28;20030;-71
2021/10/01 06:30:15;;;;;;;5.60;3.40;;;12.40;94.30;;;;;;5010128;28;20030;-71
2021/10/01 06:32:40;;;;;;;6.45;2.97;;;12.50;95.00;;;;;;5007838;28;20030;-72
2021/10/01 06:35:07;;;;;;;5.32;2.80;;;12.60;94.30;;;;;;5008427;28;20050;-71
2021/10/01 06:37:33;;;;;;;4.65;2.75;;;12.70;95.00;;;;;;5007987;28;20075;-71
2021/10/01 06:39:58;;;;;;;5.43;3.25;;;12.90;94.50;;;;;;4999932;28;20448;-72
2021/10/01 06:42:25;;;;;;;4.63;2.85;;;13.30;94.20;;;;;;5003102;28;20053;-72
2021/10/01 06:44:52;;;;;;;5.68;3.10;;;13.50;93.80;;;;;;4999445;28;20026;-72
2021/10/01 06:47:33;;;;;;;3.55;2.55;;;13.60;93.60;;;;;;4992900;28;20030;-72
2021/10/01 07:36:26;;;;;;;3.03;2.35;;;15.60;86.50;;;;;;4997434;28;20615;-74
2021/10/01 07:39:15;;;;;;;7.28;2.40;;;15.60;86.80;;;;;;4996834;28;20487;-76
2021/10/01 08:20:15;;;;;;;3.05;1.92;;;16.20;82.30;;;;;;5020228;28;20501;-77
2021/10/01 08:22:41;;;;;;;3.72;2.08;;;16.30;81.90;;;;;;5011192;28;20065;-78
2021/10/01 08:25:07;;;;;;;4.65;2.10;;;16.30;82.60;;;;;;4998769;28;20034;-77
2021/10/01 08:27:34;;;;;;;3.05;1.65;;;16.40;82.10;;;;;;5012531;28;20098;-77
2021/10/01 08:30:02;;;;;;;5.35;2.58;;;16.40;81.10;;;;;;5012322;28;20026;-78
2021/10/01 08:32:28;;;;;;;5.15;2.40;;;16.50;81.40;;;;;;5010935;28;20536;-76
2021/10/01 08:34:53;;;;;;;5.32;2.17;;;16.60;80.80;;;;;;4999142;28;20034;-76
2021/10/01 08:37:19;;;;;;;2.92;2.13;;;16.70;80.90;;;;;;5014583;28;20026;-76
2021/10/01 08:39:44;;;;;;;4.25;1.88;;;16.60;80.70;;;;;;5014472;28;20045;-77
2021/10/01 08:42:10;;;;;;;4.43;2.30;;;16.70;80.90;;;;;;5014107;28;20022;-76
2021/10/01 08:44:36;;;;;;;3.90;1.90;;;16.70;80.30;;;;;;5014423;28;20466;-77
2021/10/01 08:47:04;;;;;;;4.15;1.73;;;16.80;79.30;;;;;;5014548;28;20458;-76
2021/10/01 08:49:30;;;;;;;4.85;1.80;;;16.80;79.00;;;;;;5014139;28;20497;-76
2021/10/01 08:51:56;;;;;;;3.15;1.90;;;16.90;78.30;;;;;;5011804;28;20034;-76
2021/10/01 08:54:24;;;;;;;4.65;1.75;;;16.90;78.50;;;;;;5004518;28;20042;-77
2021/10/01 08:56:49;;;;;;;3.08;1.70;;;16.90;79.30;;;;;;5000690;28;20529;-76
2021/10/01 08:59:14;;;;;;;4.13;1.88;;;17.00;78.10;;;;;;5001353;28;20030;-77
2021/10/01 09:01:40;;;;;;;3.55;1.73;;;17.00;78.30;;;;;;5006937;28;20069;-77
2021/10/01 09:04:07;;;;;;;2.70;1.90;;;17.10;78.20;;;;;;5014137;28;20068;-77
2021/10/01 09:06:32;;;;;;;3.67;1.90;;;17.10;77.70;;;;;;5010923;28;20124;-76
2021/10/01 09:09:04;;;;;;;3.28;2.00;;;17.20;78.20;;;;;;4999090;28;20116;-77
2021/10/01 09:11:40;;;;;;;3.47;1.70;;;17.30;78.10;;;;;;5002263;28;20394;-77
2021/10/01 09:14:10;;;;;;;2.67;1.63;;;17.30;77.70;;;;;;5013847;28;20022;-77
2021/10/01 09:16:37;;;;;;;4.75;2.53;;;17.40;78.20;;;;;;5013605;28;20030;-77
2021/10/01 09:19:05;;;;;;;3.45;1.60;;;17.40;78.00;;;;;;5008185;28;20033;-78
2021/10/01 09:21:40;;;;;;;4.63;1.65;;;17.40;76.70;;;;;;5009500;28;20041;-76
2021/10/01 09:24:09;;;;;;;4.28;1.60;;;17.50;75.20;;;;;;5012838;28;20018;-78
2021/10/01 09:26:35;;;;;;;3.70;1.70;;;17.60;75.90;;;;;;5012731;28;20186;-78
2021/10/01 09:29:06;;;;;;;1.60;1.30;;;17.60;75.20;;;;;;5017154;28;20324;-78
2021/10/01 09:31:47;;;;;;;4.68;1.58;;;17.70;74.90;;;;;;5013628;28;20561;-77
2021/10/01 09:34:24;;;;;;;4.32;1.70;;;17.70;74.30;;;;;;5017952;28;20026;-77
2021/10/01 09:37:01;;;;;;;4.63;1.67;;;17.70;74.00;;;;;;4998147;28;20395;-78
2021/10/01 09:39:30;;;;;;;2.53;1.13;;;17.80;73.60;;;;;;5005637;28;20064;-77
2021/10/01 09:41:59;;;;;;;2.75;1.60;;;17.80;74.40;;;;;;5011524;28;20111;-79
2021/10/01 09:44:28;;;;;;;2.83;1.70;;;17.80;74.80;;;;;;5010490;28;20509;-79
2021/10/01 09:46:56;;;;;;;3.60;1.73;;;17.80;75.30;;;;;;5016094;28;20112;-79
2021/10/01 09:49:31;;;;;;;2.65;1.70;;;17.80;75.60;;;;;;5014414;28;20382;-79
2021/10/01 09:51:57;;;;;;;2.92;1.67;;;17.90;74.50;;;;;;5012574;28;20037;-79
2021/10/01 09:54:24;;;;;;;2.63;1.50;;;17.90;75.10;;;;;;5011979;28;20038;-79
2021/10/01 09:56:50;;;;;;;2.65;1.40;;;17.90;75.60;;;;;;5012722;28;20041;-79
2021/10/01 09:59:23;;;;;;;3.08;1.35;;;17.90;75.30;;;;;;5013331;28;20022;-78
2021/10/01 10:02:05;;;;;;;3.72;1.60;;;17.90;75.00;;;;;;5009878;28;20046;-78
2021/10/01 10:04:42;;;;;;;1.90;1.40;;;17.90;73.80;;;;;;5013593;28;20021;-77
2021/10/01 10:07:12;;;;;;;3.83;1.88;;;17.90;73.80;;;;;;5011798;28;20034;-76
2021/10/01 10:09:41;;;;;;;4.35;1.42;;;18.00;74.30;;;;;;5006514;28;20128;-75
2021/10/01 10:12:10;;;;;;;3.95;1.50;;;18.00;73.40;;;;;;4996734;28;20037;-78
2021/10/01 10:14:42;;;;;;;3.03;1.30;;;18.00;73.70;;;;;;5010370;28;20355;-78
2021/10/01 10:17:12;;;;;;;3.42;1.40;;;18.10;74.30;;;;;;5015075;28;20034;-77
2021/10/01 10:19:39;;;;;;;5.65;1.80;;;18.10;74.30;;;;;;5013646;28;20058;-78
2021/10/01 10:22:05;;;;;;;3.42;1.45;;;18.10;73.90;;;;;;5014831;28;20072;-78
2021/10/01 10:24:30;;;;;;;4.03;1.48;;;18.20;73.90;;;;;;5029094;28;20029;-78
2021/10/01 10:26:57;;;;;;;3.85;1.67;;;18.20;74.40;;;;;;5021392;28;20026;-79
2021/10/01 10:29:24;;;;;;;2.38;1.35;;;18.20;73.90;;;;;;5014973;28;20018;-78
2021/10/01 10:31:50;;;;;;;2.58;1.50;;;18.20;74.00;;;;;;5011980;28;20438;-79
2021/10/01 10:34:31;;;;;;;1.88;1.33;;;18.30;73.40;;;;;;5009261;28;20027;-79
2021/10/01 10:37:08;;;;;;;4.07;1.70;;;18.30;72.70;;;;;;5005537;28;20040;-78
2021/10/01 10:39:37;;;;;;;2.47;1.40;;;18.30;73.00;;;;;;5012565;28;20029;-78
2021/10/01 10:42:07;;;;;;;2.58;1.30;;;18.40;73.00;;;;;;5006372;28;20203;-79
2021/10/01 10:44:43;;;;;;;1.92;1.30;;;18.40;73.20;;;;;;5008683;28;20094;-78
2021/10/01 10:47:10;;;;;;;3.88;1.52;;;18.40;71.40;;;;;;4996988;28;20030;-78
2021/10/01 10:49:36;;;;;;;3.72;1.25;;;18.50;71.00;;;;;;5005601;28;20030;-79
2021/10/01 10:52:09;;;;;;;4.15;1.60;;;18.50;70.70;;;;;;5007427;28;20073;-79
2021/10/01 10:54:39;;;;;;;2.28;1.50;;;18.50;71.10;;;;;;5003657;28;20073;-78
2021/10/01 10:57:17;;;;;;;2.45;1.20;;;18.50;70.90;;;;;;5003560;28;20088;-78
2021/10/01 11:00:03;;;;;;;3.63;1.23;;;18.60;71.80;;;;;;5006999;28;20366;-79
2021/10/01 11:02:44;;;;;;;1.83;1.10;;;18.60;71.90;;;;;;5000457;28;20144;-80
2021/10/01 11:05:22;;;;;;;19.13;3.55;;;18.50;71.40;;;;;;4995662;28;20050;-77
2021/10/01 11:08:00;;;;;;;7.55;1.80;;;18.50;71.70;;;;;;4992113;28;20050;-77
2021/10/01 11:10:41;;;;;;;3.70;1.63;;;18.60;71.80;;;;;;4999077;28;20084;-82
2021/10/01 11:13:18;;;;;;;7.20;1.50;;;18.70;70.70;;;;;;4998835;28;20026;-77
2021/10/01 11:16:12;;;;;;;2.53;1.30;;;18.80;69.80;;;;;;4998654;28;20160;-77
2021/10/01 11:18:46;;;;;;;2.58;1.50;;;18.80;69.50;;;;;;5007321;28;20026;-77
2021/10/01 11:23:57;;;;;;;3.47;1.60;;;18.80;69.70;;;;;;4997311;28;20090;-77
2021/10/01 11:26:27;;;;;;;6.45;1.98;;;18.80;70.20;;;;;;5000148;28;20098;-77
2021/10/01 11:28:53;;;;;;;5.97;1.40;;;18.90;69.10;;;;;;4999970;28;20030;-77
2021/10/01 11:31:18;;;;;;;4.85;1.60;;;18.90;68.90;;;;;;5001637;28;20041;-76
2021/10/01 11:33:48;;;;;;;2.47;1.45;;;19.00;67.20;;;;;;5000391;28;20022;-76
2021/10/01 11:36:13;;;;;;;2.03;1.20;;;19.00;68.30;;;;;;5000624;28;20139;-76
2021/10/01 11:38:39;;;;;;;3.72;1.30;;;19.00;68.70;;;;;;4999583;28;20486;-75
2021/10/01 11:41:11;;;;;;;1.95;1.38;;;19.00;68.40;;;;;;4998979;28;20433;-79
2021/10/01 11:43:47;;;;;;;1.88;1.23;;;19.10;68.10;;;;;;4994878;28;20123;-75
2021/10/01 11:46:14;;;;;;;2.10;1.30;;;19.10;67.70;;;;;;5000170;28;20052;-71
2021/10/01 11:48:40;;;;;;;4.13;1.50;;;19.10;68.30;;;;;;5002435;28;20038;-72
2021/10/01 11:51:11;;;;;;;4.38;1.75;;;19.10;66.70;;;;;;5003828;28;20093;-72
2021/10/01 11:53:37;;;;;;;2.50;1.55;;;19.20;66.80;;;;;;5007110;28;20078;-72
2021/10/01 11:56:07;;;;;;;2.00;0.90;;;19.20;66.20;;;;;;5011661;28;20033;-72
2021/10/01 11:58:35;;;;;;;3.22;1.30;;;19.30;66.00;;;;;;5004201;28;20045;-72
2021/10/01 12:01:15;;;;;;;3.67;1.38;;;19.30;65.10;;;;;;5009784;28;20029;-72
2021/10/01 12:03:57;;;;;;;3.90;1.45;;;19.30;65.60;;;;;;5010241;28;20045;-73
2021/10/01 12:06:29;;;;;;;2.85;1.50;;;19.30;65.40;;;;;;5003105;28;20058;-71
2021/10/01 12:09:01;;;;;;;2.83;1.40;;;19.40;65.20;;;;;;5011927;28;20026;-71
2021/10/01 12:11:53;;;;;;;2.38;1.40;;;19.40;64.30;;;;;;5002885;28;20025;-71
2021/10/01 12:14:20;;;;;;;2.42;1.58;;;19.50;63.90;;;;;;5010776;28;20112;-71
2021/10/01 12:16:58;;;;;;;3.50;1.13;;;19.60;64.40;;;;;;5007193;28;20037;-72
2021/10/01 12:19:25;;;;;;;2.75;1.33;;;19.60;64.10;;;;;;5004731;28;20034;-72
2021/10/01 12:22:05;;;;;;;1.40;1.00;;;19.60;63.60;;;;;;5011046;28;20030;-72
2021/10/01 12:25:02;;;;;;;2.90;1.30;;;19.70;63.20;;;;;;5001749;28;20061;-72
2021/10/01 12:27:40;;;;;;;2.58;1.10;;;19.70;62.80;;;;;;4993912;28;20073;-72
2021/10/01 12:30:07;;;;;;;3.10;1.52;;;19.70;63.00;;;;;;5003665;28;20034;-72
2021/10/01 12:32:34;;;;;;;2.30;1.25;;;19.70;62.60;;;;;;5004889;28;20030;-72
2021/10/01 12:35:00;;;;;;;2.58;0.95;;;19.70;62.90;;;;;;5003434;28;20393;-71
2021/10/01 12:37:29;;;;;;;2.17;0.90;;;19.70;62.00;;;;;;5008242;28;20359;-72
2021/10/01 12:39:58;;;;;;;1.00;0.90;;;19.70;62.00;;;;;;5002344;28;20025;-72
2021/10/01 12:42:26;;;;;;;2.78;1.02;;;19.70;62.00;;;;;;5004162;28;20048;-72
2021/10/01 12:45:04;;;;;;;1.73;1.10;;;19.80;61.60;;;;;;5003017;28;20092;-72
2021/10/01 12:47:36;;;;;;;1.55;1.00;;;19.80;60.80;;;;;;5000258;28;20065;-72
2021/10/01 12:50:11;;;;;;;4.05;1.40;;;19.80;60.30;;;;;;5003049;28;20053;-72
2021/10/01 12:52:39;;;;;;;1.77;0.98;;;19.80;60.80;;;;;;5008686;28;20189;-72
2021/10/01 12:55:13;;;;;;;2.65;1.00;;;19.90;60.50;;;;;;5009537;28;20092;-72
2021/10/01 12:57:41;;;;;;;3.20;1.10;;;19.90;61.10;;;;;;5009795;28;20105;-71
2021/10/01 13:00:08;;;;;;;2.15;1.25;;;20.00;61.00;;;;;;5003324;28;20038;-72
2021/10/01 13:02:34;;;;;;;4.18;1.17;;;20.00;61.00;;;;;;4994614;28;20063;-72
2021/10/01 13:05:01;;;;;;;2.65;1.40;;;20.10;61.10;;;;;;4992943;28;20088;-72
2021/10/01 13:07:29;;;;;;;2.78;1.20;;;20.10;60.90;;;;;;5001212;28;20034;-71
2021/10/01 13:09:56;;;;;;;5.90;1.45;;;20.10;60.80;;;;;;5004815;28;20030;-71
2021/10/01 13:12:29;;;;;;;5.10;1.30;;;20.10;60.40;;;;;;5003756;28;20486;-72
2021/10/01 13:15:16;;;;;;;4.85;1.23;;;20.10;61.10;;;;;;5003509;28;20465;-71
2021/10/01 13:17:42;;;;;;;3.15;1.40;;;20.20;61.00;;;;;;5004567;28;20038;-71
2021/10/01 13:20:09;;;;;;;1.42;1.10;;;20.20;60.60;;;;;;5011016;28;20382;-71
2021/10/01 13:22:57;;;;;;;3.28;2.10;;;20.10;60.60;;;;;;5002536;28;20123;-71
2021/10/01 13:25:28;;;;;;;2.05;1.33;;;20.20;60.30;;;;;;5008962;28;20471;-72
2021/10/01 13:27:55;;;;;;;2.63;1.20;;;20.20;60.40;;;;;;5003894;28;20026;-71
2021/10/01 13:30:21;;;;;;;2.15;1.00;;;20.20;60.20;;;;;;5007354;28;20030;-71
2021/10/01 13:32:48;;;;;;;3.53;1.58;;;20.20;60.20;;;;;;5008613;28;20569;-72
2021/10/01 13:35:15;;;;;;;3.40;1.35;;;20.30;60.60;;;;;;5005838;28;20052;-73
2021/10/01 13:37:42;;;;;;;3.42;1.25;;;20.40;59.90;;;;;;5011901;28;20034;-72
2021/10/01 13:40:08;;;;;;;3.22;1.50;;;20.30;60.20;;;;;;5011040;28;20383;-71
2021/10/01 13:42:33;;;;;;;4.03;1.60;;;20.30;60.00;;;;;;5009662;28;20038;-72
2021/10/01 13:44:59;;;;;;;1.88;1.15;;;20.30;59.30;;;;;;5011543;28;20443;-71
2021/10/01 13:47:24;;;;;;;3.50;1.15;;;20.30;58.60;;;;;;5007966;28;20036;-71
2021/10/01 13:49:50;;;;;;;4.30;1.20;;;20.30;58.40;;;;;;4993426;28;20029;-71
2021/10/01 13:52:16;;;;;;;4.28;1.38;;;20.30;58.80;;;;;;5000431;28;20421;-71
2021/10/01 13:54:41;;;;;;;6.35;1.17;;;20.40;58.50;;;;;;5006744;28;20050;-69
2021/10/01 13:57:08;;;;;;;1.73;1.40;;;20.40;58.60;;;;;;5000963;28;20079;-71
2021/10/01 13:59:33;;;;;;;5.32;1.20;;;20.40;57.80;;;;;;4999364;28;20026;-72
2021/10/01 14:01:59;;;;;;;2.72;1.10;;;20.40;57.20;;;;;;5010977;28;20036;-74
2021/10/01 14:04:26;;;;;;;3.72;1.83;;;20.50;58.10;;;;;;5023405;28;20022;-72
2021/10/01 14:06:51;;;;;;;5.82;2.25;;;20.50;58.30;;;;;;5011166;28;20041;-71
2021/10/01 14:09:17;;;;;;;3.60;1.30;;;20.50;58.30;;;;;;5012468;28;20022;-72
2021/10/01 14:11:42;;;;;;;2.45;1.30;;;20.50;58.40;;;;;;5006246;28;20030;-72
2021/10/01 14:14:08;;;;;;;2.85;1.20;;;20.40;57.60;;;;;;5000551;28;20018;-71
2021/10/01 14:16:33;;;;;;;2.67;1.30;;;20.40;57.40;;;;;;5011400;28;20490;-71
2021/10/01 14:18:58;;;;;;;5.13;2.28;;;20.50;57.30;;;;;;5012216;28;20033;-72
2021/10/01 14:21:24;;;;;;;3.92;1.42;;;20.50;57.20;;;;;;5011183;28;20535;-70
2021/10/01 14:23:50;;;;;;;2.10;1.08;;;20.50;56.00;;;;;;5012309;28;20022;-71